sensor_id;sensor_type;location;lat;lon;timestamp;temperature;humidity
983;DHT22;480;48.124;11.578;2022-07-30T00:00:31;18.60;99.90
983;DHT22;480;48.124;11.578;2022-07-30T00:02:58;18.60;99.90
983;DHT22;480;48.124;11.578;2022-07-30T00:05:27;18.60;99.90
983;DHT22;480;48.124;11.578;2022-07-30T00:07:54;18.60;99.90
983;DHT22;480;48.124;11.578;2022-07-30T00:10:21;18.40;99.90
983;DHT22;480;48.124;11.578;2022-07-30T00:12:48;18.50;99.90
983;DHT22;480;48.124;11.578;2022-07-30T00:15:16;18.50;99.90
983;DHT22;480;48.124;11.578;2022-07-30T00:17:43;18.60;99.90
983;DHT22;480;48.124;11.578;2022-07-30T00:20:10;18.60;99.90
983;DHT22;480;48.124;11.578;2022-07-30T00:22:39;18.50;99.90
983;DHT22;480;48.124;11.578;2022-07-30T00:25:06;18.60;99.90
983;DHT22;480;48.124;11.578;2022-07-30T00:27:34;18.60;99.90
983;DHT22;480;48.124;11.578;2022-07-30T00:30:02;18.60;99.90
983;DHT22;480;48.124;11.578;2022-07-30T00:32:31;18.60;99.90
983;DHT22;480;48.124;11.578;2022-07-30T00:34:58;18.70;99.90
983;DHT22;480;48.124;11.578;2022-07-30T00:37:25;18.70;99.90
983;DHT22;480;48.124;11.578;2022-07-30T00:39:56;18.80;99.90
983;DHT22;480;48.124;11.578;2022-07-30T00:42:23;18.80;99.90
983;DHT22;480;48.124;11.578;2022-07-30T00:44:51;18.60;99.90
983;DHT22;480;48.124;11.578;2022-07-30T00:47:19;18.60;99.90
983;DHT22;480;48.124;11.578;2022-07-30T00:49:46;18.60;99.90
983;DHT22;480;48.124;11.578;2022-07-30T00:52:13;18.70;99.90
983;DHT22;480;48.124;11.578;2022-07-30T00:54:41;18.80;99.90
983;DHT22;480;48.124;11.578;2022-07-30T00:57:09;18.90;99.90
983;DHT22;480;48.124;11.578;2022-07-30T00:59:36;19.00;99.90
983;DHT22;480;48.124;11.578;2022-07-30T01:02:03;19.00;99.90
983;DHT22;480;48.124;11.578;2022-07-30T01:04:30;19.10;99.90
983;DHT22;480;48.124;11.578;2022-07-30T01:06:57;18.90;99.90
983;DHT22;480;48.124;11.578;2022-07-30T01:09:25;18.80;99.90
983;DHT22;480;48.124;11.578;2022-07-30T01:11:52;18.70;99.90
983;DHT22;480;48.124;11.578;2022-07-30T01:14:22;18.70;99.90
983;DHT22;480;48.124;11.578;2022-07-30T01:16:49;18.70;99.90
983;DHT22;480;48.124;11.578;2022-07-30T01:19:20;18.70;99.90
983;DHT22;480;48.124;11.578;2022-07-30T01:22:10;18.70;99.90
983;DHT22;480;48.124;11.578;2022-07-30T01:24:42;18.70;99.90
983;DHT22;480;48.124;11.578;2022-07-30T01:27:13;18.70;99.90
983;DHT22;480;48.124;11.578;2022-07-30T01:29:42;18.60;99.90
983;DHT22;480;48.124;11.578;2022-07-30T01:32:11;18.60;99.90
983;DHT22;480;48.124;11.578;2022-07-30T01:34:42;18.50;99.90
983;DHT22;480;48.124;11.578;2022-07-30T01:37:10;18.50;99.90
983;DHT22;480;48.124;11.578;2022-07-30T01:39:39;18.50;99.90
983;DHT22;480;48.124;11.578;2022-07-30T01:42:07;18.60;99.90
983;DHT22;480;48.124;11.578;2022-07-30T01:44:37;18.60;99.90
983;DHT22;480;48.124;11.578;2022-07-30T01:47:05;18.50;99.90
983;DHT22;480;48.124;11.578;2022-07-30T01:49:34;18.50;99.90
983;DHT22;480;48.124;11.578;2022-07-30T01:52:03;18.60;99.90
983;DHT22;480;48.124;11.578;2022-07-30T01:54:32;18.70;99.90
983;DHT22;480;48.124;11.578;2022-07-30T01:57:02;18.80;99.90
983;DHT22;480;48.124;11.578;2022-07-30T01:59:33;18.80;99.90
983;DHT22;480;48.124;11.578;2022-07-30T02:02:05;18.80;99.90
983;DHT22;480;48.124;11.578;2022-07-30T02:04:33;18.80;99.90
983;DHT22;480;48.124;11.578;2022-07-30T02:07:04;18.70;99.90
983;DHT22;480;48.124;11.578;2022-07-30T02:09:35;18.80;99.90
983;DHT22;480;48.124;11.578;2022-07-30T02:12:05;18.90;99.90
983;DHT22;480;48.124;11.578;2022-07-30T02:14:55;19.00;99.90
983;DHT22;480;48.124;11.578;2022-07-30T02:17:28;19.00;99.90
983;DHT22;480;48.124;11.578;2022-07-30T02:19:56;19.10;99.90
983;DHT22;480;48.124;11.578;2022-07-30T02:22:25;19.00;99.90
983;DHT22;480;48.124;11.578;2022-07-30T02:24:54;18.90;99.90
983;DHT22;480;48.124;11.578;2022-07-30T02:27:25;19.00;99.90
983;DHT22;480;48.124;11.578;2022-07-30T02:29:54;19.00;99.90
983;DHT22;480;48.124;11.578;2022-07-30T02:32:25;19.00;99.90
983;DHT22;480;48.124;11.578;2022-07-30T02:35:00;19.00;99.90
983;DHT22;480;48.124;11.578;2022-07-30T02:37:31;19.00;99.90
983;DHT22;480;48.124;11.578;2022-07-30T02:39:59;18.90;99.90
983;DHT22;480;48.124;11.578;2022-07-30T02:42:28;19.00;99.90
983;DHT22;480;48.124;11.578;2022-07-30T02:44:57;19.00;99.90
983;DHT22;480;48.124;11.578;2022-07-30T02:47:26;19.00;99.90
983;DHT22;480;48.124;11.578;2022-07-30T02:49:56;19.00;99.90
983;DHT22;480;48.124;11.578;2022-07-30T02:52:26;18.90;99.90
983;DHT22;480;48.124;11.578;2022-07-30T02:54:55;18.90;99.90
983;DHT22;480;48.124;11.578;2022-07-30T02:57:23;18.80;99.90
983;DHT22;480;48.124;11.578;2022-07-30T02:59:52;18.80;99.90
983;DHT22;480;48.124;11.578;2022-07-30T03:02:21;18.80;99.90
983;DHT22;480;48.124;11.578;2022-07-30T03:04:50;18.70;99.90
983;DHT22;480;48.124;11.578;2022-07-30T03:07:19;18.60;99.90
983;DHT22;480;48.124;11.578;2022-07-30T03:09:47;18.50;99.90
983;DHT22;480;48.124;11.578;2022-07-30T03:12:15;18.50;99.90
983;DHT22;480;48.124;11.578;2022-07-30T03:14:42;18.50;99.90
983;DHT22;480;48.124;11.578;2022-07-30T03:17:10;18.50;99.90
983;DHT22;480;48.124;11.578;2022-07-30T03:19:39;18.60;99.90
983;DHT22;480;48.124;11.578;2022-07-30T03:22:09;18.60;99.90
983;DHT22;480;48.124;11.578;2022-07-30T03:24:37;18.60;99.90
983;DHT22;480;48.124;11.578;2022-07-30T03:27:06;18.60;99.90
983;DHT22;480;48.124;11.578;2022-07-30T03:29:35;18.60;99.90
983;DHT22;480;48.124;11.578;2022-07-30T03:32:03;18.60;99.90
983;DHT22;480;48.124;11.578;2022-07-30T03:34:32;18.60;99.90
983;DHT22;480;48.124;11.578;2022-07-30T03:37:00;18.60;99.90
983;DHT22;480;48.124;11.578;2022-07-30T03:39:32;18.60;99.90
983;DHT22;480;48.124;11.578;2022-07-30T03:42:00;18.70;99.90
983;DHT22;480;48.124;11.578;2022-07-30T03:44:27;18.70;99.90
983;DHT22;480;48.124;11.578;2022-07-30T03:46:55;18.70;99.90
983;DHT22;480;48.124;11.578;2022-07-30T03:49:23;18.60;99.90
983;DHT22;480;48.124;11.578;2022-07-30T03:51:51;18.50;99.90
983;DHT22;480;48.124;11.578;2022-07-30T03:54:19;18.50;99.90
983;DHT22;480;48.124;11.578;2022-07-30T03:56:48;18.40;99.90
983;DHT22;480;48.124;11.578;2022-07-30T03:59:16;18.40;99.90
983;DHT22;480;48.124;11.578;2022-07-30T04:01:43;18.40;99.90
983;DHT22;480;48.124;11.578;2022-07-30T04:04:10;18.40;99.90
983;DHT22;480;48.124;11.578;2022-07-30T04:06:37;18.40;99.90
983;DHT22;480;48.124;11.578;2022-07-30T04:09:06;18.40;99.90
983;DHT22;480;48.124;11.578;2022-07-30T04:11:33;18.40;99.90
983;DHT22;480;48.124;11.578;2022-07-30T04:14:02;18.40;99.90
983;DHT22;480;48.124;11.578;2022-07-30T04:16:34;18.40;99.90
983;DHT22;480;48.124;11.578;2022-07-30T04:19:05;18.40;99.90
983;DHT22;480;48.124;11.578;2022-07-30T04:21:35;18.40;99.90
983;DHT22;480;48.124;11.578;2022-07-30T04:24:04;18.50;99.90
983;DHT22;480;48.124;11.578;2022-07-30T04:26:35;18.40;99.90
983;DHT22;480;48.124;11.578;2022-07-30T04:29:05;18.40;99.90
983;DHT22;480;48.124;11.578;2022-07-30T04:31:32;18.30;99.90
983;DHT22;480;48.124;11.578;2022-07-30T04:34:00;18.30;99.90
983;DHT22;480;48.124;11.578;2022-07-30T04:36:28;18.30;99.90
983;DHT22;480;48.124;11.578;2022-07-30T04:38:56;18.30;99.90
983;DHT22;480;48.124;11.578;2022-07-30T04:41:23;18.30;99.90
983;DHT22;480;48.124;11.578;2022-07-30T04:43:51;18.30;99.90
983;DHT22;480;48.124;11.578;2022-07-30T04:46:20;18.30;99.90
983;DHT22;480;48.124;11.578;2022-07-30T04:48:47;18.30;99.90
983;DHT22;480;48.124;11.578;2022-07-30T04:51:19;18.30;99.90
983;DHT22;480;48.124;11.578;2022-07-30T04:53:48;18.30;99.90
983;DHT22;480;48.124;11.578;2022-07-30T04:56:17;18.50;99.90
983;DHT22;480;48.124;11.578;2022-07-30T04:58:46;18.60;99.90
983;DHT22;480;48.124;11.578;2022-07-30T05:01:17;18.70;99.90
983;DHT22;480;48.124;11.578;2022-07-30T05:03:46;18.80;99.90
983;DHT22;480;48.124;11.578;2022-07-30T05:06:16;18.70;99.90
983;DHT22;480;48.124;11.578;2022-07-30T05:08:43;18.80;99.90
983;DHT22;480;48.124;11.578;2022-07-30T05:11:12;18.80;99.90
983;DHT22;480;48.124;11.578;2022-07-30T05:13:40;18.80;99.90
983;DHT22;480;48.124;11.578;2022-07-30T05:16:08;18.80;99.90
983;DHT22;480;48.124;11.578;2022-07-30T05:18:36;18.80;99.90
983;DHT22;480;48.124;11.578;2022-07-30T05:21:05;18.90;99.90
983;DHT22;480;48.124;11.578;2022-07-30T05:23:32;18.80;99.90
983;DHT22;480;48.124;11.578;2022-07-30T05:26:00;18.80;99.90
983;DHT22;480;48.124;11.578;2022-07-30T05:28:27;18.90;99.90
983;DHT22;480;48.124;11.578;2022-07-30T05:30:55;18.90;99.90
983;DHT22;480;48.124;11.578;2022-07-30T05:33:23;18.80;99.90
983;DHT22;480;48.124;11.578;2022-07-30T05:35:50;18.90;99.90
983;DHT22;480;48.124;11.578;2022-07-30T05:38:19;19.10;99.90
983;DHT22;480;48.124;11.578;2022-07-30T05:40:46;19.20;99.90
983;DHT22;480;48.124;11.578;2022-07-30T05:43:13;19.20;99.90
983;DHT22;480;48.124;11.578;2022-07-30T05:45:40;19.20;99.90
983;DHT22;480;48.124;11.578;2022-07-30T05:48:07;19.20;99.90
983;DHT22;480;48.124;11.578;2022-07-30T05:50:34;19.10;99.90
983;DHT22;480;48.124;11.578;2022-07-30T05:53:01;19.10;99.90
983;DHT22;480;48.124;11.578;2022-07-30T05:55:30;19.00;99.90
983;DHT22;480;48.124;11.578;2022-07-30T05:57:57;19.00;99.90
983;DHT22;480;48.124;11.578;2022-07-30T06:00:24;19.00;99.90
983;DHT22;480;48.124;11.578;2022-07-30T06:02:51;18.90;99.90
983;DHT22;480;48.124;11.578;2022-07-30T06:05:19;18.90;99.90
983;DHT22;480;48.124;11.578;2022-07-30T06:07:46;18.90;99.90
983;DHT22;480;48.124;11.578;2022-07-30T06:10:13;18.80;99.90
983;DHT22;480;48.124;11.578;2022-07-30T06:12:42;18.90;99.90
983;DHT22;480;48.124;11.578;2022-07-30T06:15:09;18.80;99.90
983;DHT22;480;48.124;11.578;2022-07-30T06:17:41;18.80;99.90
983;DHT22;480;48.124;11.578;2022-07-30T06:20:09;18.90;99.90
983;DHT22;480;48.124;11.578;2022-07-30T06:22:37;18.90;99.90
983;DHT22;480;48.124;11.578;2022-07-30T06:25:05;19.00;99.90
983;DHT22;480;48.124;11.578;2022-07-30T06:27:32;19.20;99.90
983;DHT22;480;48.124;11.578;2022-07-30T06:30:06;19.30;99.90
983;DHT22;480;48.124;11.578;2022-07-30T06:32:34;19.30;99.90
983;DHT22;480;48.124;11.578;2022-07-30T06:35:02;19.30;99.90
983;DHT22;480;48.124;11.578;2022-07-30T06:37:29;19.30;99.90
983;DHT22;480;48.124;11.578;2022-07-30T06:39:56;19.20;99.90
983;DHT22;480;48.124;11.578;2022-07-30T06:42:23;19.20;99.90
983;DHT22;480;48.124;11.578;2022-07-30T06:44:50;19.20;99.90
983;DHT22;480;48.124;11.578;2022-07-30T06:47:20;19.10;99.90
983;DHT22;480;48.124;11.578;2022-07-30T06:49:52;19.00;99.90
983;DHT22;480;48.124;11.578;2022-07-30T06:52:19;19.10;99.90
983;DHT22;480;48.124;11.578;2022-07-30T06:54:46;19.00;99.90
983;DHT22;480;48.124;11.578;2022-07-30T06:57:14;19.00;99.90
983;DHT22;480;48.124;11.578;2022-07-30T06:59:41;19.00;99.90
983;DHT22;480;48.124;11.578;2022-07-30T07:02:08;18.90;99.90
983;DHT22;480;48.124;11.578;2022-07-30T07:04:37;18.90;99.90
983;DHT22;480;48.124;11.578;2022-07-30T07:07:04;18.90;99.90
983;DHT22;480;48.124;11.578;2022-07-30T07:09:31;19.00;99.90
983;DHT22;480;48.124;11.578;2022-07-30T07:11:58;19.10;99.90
983;DHT22;480;48.124;11.578;2022-07-30T07:14:25;19.30;99.90
983;DHT22;480;48.124;11.578;2022-07-30T07:16:52;19.40;99.90
983;DHT22;480;48.124;11.578;2022-07-30T07:19:19;19.50;99.90
983;DHT22;480;48.124;11.578;2022-07-30T07:21:48;19.70;99.90
983;DHT22;480;48.124;11.578;2022-07-30T07:24:15;19.70;99.90
983;DHT22;480;48.124;11.578;2022-07-30T07:26:42;19.80;99.90
983;DHT22;480;48.124;11.578;2022-07-30T07:29:09;19.80;99.90
983;DHT22;480;48.124;11.578;2022-07-30T07:31:36;19.90;99.90
983;DHT22;480;48.124;11.578;2022-07-30T07:34:03;20.00;99.90
983;DHT22;480;48.124;11.578;2022-07-30T07:36:30;20.20;99.90
983;DHT22;480;48.124;11.578;2022-07-30T07:39:00;20.30;99.90
983;DHT22;480;48.124;11.578;2022-07-30T07:41:27;20.30;99.90
983;DHT22;480;48.124;11.578;2022-07-30T07:43:54;20.20;99.90
983;DHT22;480;48.124;11.578;2022-07-30T07:46:21;20.40;99.90
983;DHT22;480;48.124;11.578;2022-07-30T07:48:48;20.60;99.90
983;DHT22;480;48.124;11.578;2022-07-30T07:51:15;20.70;99.90
983;DHT22;480;48.124;11.578;2022-07-30T07:53:42;20.70;99.90
983;DHT22;480;48.124;11.578;2022-07-30T07:56:10;20.70;99.90
983;DHT22;480;48.124;11.578;2022-07-30T07:58:38;20.70;99.90
983;DHT22;480;48.124;11.578;2022-07-30T08:01:05;20.70;99.90
983;DHT22;480;48.124;11.578;2022-07-30T08:03:33;20.90;99.90
983;DHT22;480;48.124;11.578;2022-07-30T08:06:00;20.90;99.90
983;DHT22;480;48.124;11.578;2022-07-30T08:08:27;21.10;99.90
983;DHT22;480;48.124;11.578;2022-07-30T08:10:54;21.00;99.90
983;DHT22;480;48.124;11.578;2022-07-30T08:13:22;21.10;99.90
983;DHT22;480;48.124;11.578;2022-07-30T08:15:49;21.20;99.90
983;DHT22;480;48.124;11.578;2022-07-30T08:18:17;21.40;99.90
983;DHT22;480;48.124;11.578;2022-07-30T08:20:44;21.20;99.90
983;DHT22;480;48.124;11.578;2022-07-30T08:23:11;21.30;99.90
983;DHT22;480;48.124;11.578;2022-07-30T08:25:38;21.20;99.90
983;DHT22;480;48.124;11.578;2022-07-30T08:28:05;21.20;99.90
983;DHT22;480;48.124;11.578;2022-07-30T08:30:33;21.30;99.90
983;DHT22;480;48.124;11.578;2022-07-30T08:33:01;21.50;99.90
983;DHT22;480;48.124;11.578;2022-07-30T08:35:28;21.50;99.90
983;DHT22;480;48.124;11.578;2022-07-30T08:37:55;21.70;99.90
983;DHT22;480;48.124;11.578;2022-07-30T08:40:25;21.90;99.90
983;DHT22;480;48.124;11.578;2022-07-30T08:42:52;22.20;99.90
983;DHT22;480;48.124;11.578;2022-07-30T08:45:20;22.20;99.90
983;DHT22;480;48.124;11.578;2022-07-30T08:47:49;22.30;99.90
983;DHT22;480;48.124;11.578;2022-07-30T08:50:18;22.30;99.90
983;DHT22;480;48.124;11.578;2022-07-30T08:52:45;22.30;99.90
983;DHT22;480;48.124;11.578;2022-07-30T08:55:14;22.30;99.90
983;DHT22;480;48.124;11.578;2022-07-30T08:57:42;22.40;99.90
983;DHT22;480;48.124;11.578;2022-07-30T09:00:11;22.60;99.90
983;DHT22;480;48.124;11.578;2022-07-30T09:02:39;22.60;99.90
983;DHT22;480;48.124;11.578;2022-07-30T09:05:08;22.70;99.90
983;DHT22;480;48.124;11.578;2022-07-30T09:07:36;22.70;99.90
983;DHT22;480;48.124;11.578;2022-07-30T09:10:05;22.60;99.90
983;DHT22;480;48.124;11.578;2022-07-30T09:12:38;22.60;99.90
983;DHT22;480;48.124;11.578;2022-07-30T09:15:09;22.60;99.90
983;DHT22;480;48.124;11.578;2022-07-30T09:17:47;22.70;99.90
983;DHT22;480;48.124;11.578;2022-07-30T09:20:16;22.90;99.90
983;DHT22;480;48.124;11.578;2022-07-30T09:22:45;22.80;99.90
983;DHT22;480;48.124;11.578;2022-07-30T09:25:12;22.80;99.90
983;DHT22;480;48.124;11.578;2022-07-30T09:27:44;22.90;99.90
983;DHT22;480;48.124;11.578;2022-07-30T09:30:11;23.00;99.90
983;DHT22;480;48.124;11.578;2022-07-30T09:32:49;23.10;99.90
983;DHT22;480;48.124;11.578;2022-07-30T09:35:21;23.20;99.90
983;DHT22;480;48.124;11.578;2022-07-30T09:37:57;23.30;99.90
983;DHT22;480;48.124;11.578;2022-07-30T09:40:25;23.40;99.90
983;DHT22;480;48.124;11.578;2022-07-30T09:43:01;23.30;99.90
983;DHT22;480;48.124;11.578;2022-07-30T09:45:28;23.20;99.90
983;DHT22;480;48.124;11.578;2022-07-30T09:47:55;23.30;99.90
983;DHT22;480;48.124;11.578;2022-07-30T09:50:24;23.40;99.90
983;DHT22;480;48.124;11.578;2022-07-30T09:52:52;23.30;99.90
983;DHT22;480;48.124;11.578;2022-07-30T09:55:30;23.30;99.90
983;DHT22;480;48.124;11.578;2022-07-30T09:58:00;23.40;99.90
983;DHT22;480;48.124;11.578;2022-07-30T10:00:30;23.40;99.90
983;DHT22;480;48.124;11.578;2022-07-30T10:02:58;23.50;99.90
983;DHT22;480;48.124;11.578;2022-07-30T10:05:28;23.70;99.90
983;DHT22;480;48.124;11.578;2022-07-30T10:08:09;23.60;99.90
983;DHT22;480;48.124;11.578;2022-07-30T10:10:37;23.70;99.90
983;DHT22;480;48.124;11.578;2022-07-30T10:13:04;23.70;99.90
983;DHT22;480;48.124;11.578;2022-07-30T10:15:34;24.00;99.90
983;DHT22;480;48.124;11.578;2022-07-30T10:18:03;23.90;99.90
983;DHT22;480;48.124;11.578;2022-07-30T10:20:32;23.80;99.90
983;DHT22;480;48.124;11.578;2022-07-30T10:23:00;23.80;99.90
983;DHT22;480;48.124;11.578;2022-07-30T10:25:27;23.60;99.90
983;DHT22;480;48.124;11.578;2022-07-30T10:27:54;23.70;99.90
983;DHT22;480;48.124;11.578;2022-07-30T10:30:21;23.90;99.90
983;DHT22;480;48.124;11.578;2022-07-30T10:32:49;24.00;99.90
983;DHT22;480;48.124;11.578;2022-07-30T10:35:17;24.10;99.90
983;DHT22;480;48.124;11.578;2022-07-30T10:37:49;24.20;99.90
983;DHT22;480;48.124;11.578;2022-07-30T10:40:23;24.30;99.90
983;DHT22;480;48.124;11.578;2022-07-30T10:43:16;24.10;99.90
983;DHT22;480;48.124;11.578;2022-07-30T10:45:52;24.10;99.90
983;DHT22;480;48.124;11.578;2022-07-30T10:48:22;24.10;99.90
983;DHT22;480;48.124;11.578;2022-07-30T10:50:51;24.20;99.90
983;DHT22;480;48.124;11.578;2022-07-30T10:53:36;24.10;99.90
983;DHT22;480;48.124;11.578;2022-07-30T10:56:12;24.20;99.90
983;DHT22;480;48.124;11.578;2022-07-30T10:59:03;24.40;99.90
983;DHT22;480;48.124;11.578;2022-07-30T11:02:08;24.60;99.90
983;DHT22;480;48.124;11.578;2022-07-30T11:04:36;24.80;99.90
983;DHT22;480;48.124;11.578;2022-07-30T11:07:29;25.10;99.90
983;DHT22;480;48.124;11.578;2022-07-30T11:09:59;25.20;99.90
983;DHT22;480;48.124;11.578;2022-07-30T11:12:52;25.30;99.40
983;DHT22;480;48.124;11.578;2022-07-30T11:15:19;25.30;99.90
983;DHT22;480;48.124;11.578;2022-07-30T11:17:59;25.70;99.40
983;DHT22;480;48.124;11.578;2022-07-30T11:20:28;25.90;98.80
983;DHT22;480;48.124;11.578;2022-07-30T11:23:11;25.80;98.70
983;DHT22;480;48.124;11.578;2022-07-30T11:26:48;25.90;97.40
983;DHT22;480;48.124;11.578;2022-07-30T11:29:37;26.00;97.80
983;DHT22;480;48.124;11.578;2022-07-30T11:32:26;25.90;98.10
983;DHT22;480;48.124;11.578;2022-07-30T11:35:12;26.20;98.30
983;DHT22;480;48.124;11.578;2022-07-30T11:38:03;26.60;97.70
983;DHT22;480;48.124;11.578;2022-07-30T11:40:33;26.90;97.30
983;DHT22;480;48.124;11.578;2022-07-30T11:43:19;26.70;97.10
983;DHT22;480;48.124;11.578;2022-07-30T11:45:48;26.90;98.40
983;DHT22;480;48.124;11.578;2022-07-30T11:48:17;26.60;95.70
983;DHT22;480;48.124;11.578;2022-07-30T11:50:46;25.90;96.80
983;DHT22;480;48.124;11.578;2022-07-30T11:53:16;25.50;96.80
983;DHT22;480;48.124;11.578;2022-07-30T11:55:45;25.30;97.60
983;DHT22;480;48.124;11.578;2022-07-30T11:58:25;25.10;97.80
983;DHT22;480;48.124;11.578;2022-07-30T12:00:53;24.70;99.00
983;DHT22;480;48.124;11.578;2022-07-30T12:03:22;24.50;99.30
983;DHT22;480;48.124;11.578;2022-07-30T12:05:49;24.30;99.90
983;DHT22;480;48.124;11.578;2022-07-30T12:08:16;24.10;99.90
983;DHT22;480;48.124;11.578;2022-07-30T12:10:54;24.10;99.10
983;DHT22;480;48.124;11.578;2022-07-30T12:13:23;24.70;99.70
983;DHT22;480;48.124;11.578;2022-07-30T12:15:50;25.10;97.50
983;DHT22;480;48.124;11.578;2022-07-30T12:18:24;25.30;97.70
983;DHT22;480;48.124;11.578;2022-07-30T12:20:54;25.50;98.60
983;DHT22;480;48.124;11.578;2022-07-30T12:23:21;25.50;97.10
983;DHT22;480;48.124;11.578;2022-07-30T12:25:54;25.80;97.50
983;DHT22;480;48.124;11.578;2022-07-30T12:28:25;25.90;95.40
983;DHT22;480;48.124;11.578;2022-07-30T12:30:54;26.10;95.10
983;DHT22;480;48.124;11.578;2022-07-30T12:33:21;26.10;95.00
983;DHT22;480;48.124;11.578;2022-07-30T12:35:50;26.30;94.40
983;DHT22;480;48.124;11.578;2022-07-30T12:38:18;26.50;94.30
983;DHT22;480;48.124;11.578;2022-07-30T12:40:54;26.80;94.10
983;DHT22;480;48.124;11.578;2022-07-30T12:43:43;26.60;93.70
983;DHT22;480;48.124;11.578;2022-07-30T12:46:11;26.30;92.90
983;DHT22;480;48.124;11.578;2022-07-30T12:48:51;26.00;92.10
983;DHT22;480;48.124;11.578;2022-07-30T12:51:19;26.10;92.50
983;DHT22;480;48.124;11.578;2022-07-30T12:53:47;26.20;92.60
983;DHT22;480;48.124;11.578;2022-07-30T12:56:15;26.40;92.20
983;DHT22;480;48.124;11.578;2022-07-30T12:58:45;26.60;91.50
983;DHT22;480;48.124;11.578;2022-07-30T13:01:14;26.70;93.20
983;DHT22;480;48.124;11.578;2022-07-30T13:03:42;26.80;92.20
983;DHT22;480;48.124;11.578;2022-07-30T13:06:17;27.00;92.00
983;DHT22;480;48.124;11.578;2022-07-30T13:08:46;27.10;90.90
983;DHT22;480;48.124;11.578;2022-07-30T13:11:14;27.20;91.10
983;DHT22;480;48.124;11.578;2022-07-30T13:13:42;27.50;91.50
983;DHT22;480;48.124;11.578;2022-07-30T13:16:12;27.50;91.20
983;DHT22;480;48.124;11.578;2022-07-30T13:18:39;27.50;90.30
983;DHT22;480;48.124;11.578;2022-07-30T13:21:07;27.40;90.50
983;DHT22;480;48.124;11.578;2022-07-30T13:23:35;27.60;91.10
983;DHT22;480;48.124;11.578;2022-07-30T13:26:04;27.50;90.70
983;DHT22;480;48.124;11.578;2022-07-30T13:28:31;27.50;90.70
983;DHT22;480;48.124;11.578;2022-07-30T13:30:59;27.50;89.20
983;DHT22;480;48.124;11.578;2022-07-30T13:33:27;27.30;88.40
983;DHT22;480;48.124;11.578;2022-07-30T13:35:54;27.40;89.20
983;DHT22;480;48.124;11.578;2022-07-30T13:38:21;27.40;89.80
983;DHT22;480;48.124;11.578;2022-07-30T13:40:48;27.50;89.40
983;DHT22;480;48.124;11.578;2022-07-30T13:43:15;27.50;87.80
983;DHT22;480;48.124;11.578;2022-07-30T13:45:43;27.60;89.10
983;DHT22;480;48.124;11.578;2022-07-30T13:48:10;27.90;87.20
983;DHT22;480;48.124;11.578;2022-07-30T13:50:38;27.80;86.90
983;DHT22;480;48.124;11.578;2022-07-30T13:53:06;27.90;86.90
983;DHT22;480;48.124;11.578;2022-07-30T13:55:33;28.00;87.30
983;DHT22;480;48.124;11.578;2022-07-30T13:58:01;28.10;88.30
983;DHT22;480;48.124;11.578;2022-07-30T14:00:28;28.00;85.90
983;DHT22;480;48.124;11.578;2022-07-30T14:02:58;28.00;86.90
983;DHT22;480;48.124;11.578;2022-07-30T14:05:25;28.10;85.60
983;DHT22;480;48.124;11.578;2022-07-30T14:07:54;28.30;86.70
983;DHT22;480;48.124;11.578;2022-07-30T14:10:22;28.40;85.20
983;DHT22;480;48.124;11.578;2022-07-30T14:12:49;28.50;84.80
983;DHT22;480;48.124;11.578;2022-07-30T14:15:19;28.50;83.30
983;DHT22;480;48.124;11.578;2022-07-30T14:17:48;28.50;84.00
983;DHT22;480;48.124;11.578;2022-07-30T14:20:15;28.60;83.90
983;DHT22;480;48.124;11.578;2022-07-30T14:22:42;28.60;82.70
983;DHT22;480;48.124;11.578;2022-07-30T14:25:12;28.70;83.60
983;DHT22;480;48.124;11.578;2022-07-30T14:27:39;28.70;82.00
983;DHT22;480;48.124;11.578;2022-07-30T14:30:08;28.70;82.00
983;DHT22;480;48.124;11.578;2022-07-30T14:32:36;28.80;82.00
983;DHT22;480;48.124;11.578;2022-07-30T14:35:03;28.60;84.40
983;DHT22;480;48.124;11.578;2022-07-30T14:37:30;28.50;83.60
983;DHT22;480;48.124;11.578;2022-07-30T14:39:57;28.70;80.80
983;DHT22;480;48.124;11.578;2022-07-30T14:42:26;28.60;80.70
983;DHT22;480;48.124;11.578;2022-07-30T14:44:53;28.70;81.10
983;DHT22;480;48.124;11.578;2022-07-30T14:47:20;28.40;80.00
983;DHT22;480;48.124;11.578;2022-07-30T14:49:47;28.00;81.00
983;DHT22;480;48.124;11.578;2022-07-30T14:52:14;27.80;81.70
983;DHT22;480;48.124;11.578;2022-07-30T14:54:41;28.10;82.90
983;DHT22;480;48.124;11.578;2022-07-30T14:57:08;28.20;82.50
983;DHT22;480;48.124;11.578;2022-07-30T14:59:36;28.30;82.30
983;DHT22;480;48.124;11.578;2022-07-30T15:02:03;28.10;81.60
983;DHT22;480;48.124;11.578;2022-07-30T15:04:30;28.10;82.90
983;DHT22;480;48.124;11.578;2022-07-30T15:06:57;28.30;82.10
983;DHT22;480;48.124;11.578;2022-07-30T15:09:25;28.30;81.40
983;DHT22;480;48.124;11.578;2022-07-30T15:11:52;28.40;83.10
983;DHT22;480;48.124;11.578;2022-07-30T15:14:19;28.50;82.80
983;DHT22;480;48.124;11.578;2022-07-30T15:16:47;28.30;83.20
983;DHT22;480;48.124;11.578;2022-07-30T15:19:14;28.10;83.30
983;DHT22;480;48.124;11.578;2022-07-30T15:21:41;28.20;81.30
983;DHT22;480;48.124;11.578;2022-07-30T15:24:09;27.80;83.70
983;DHT22;480;48.124;11.578;2022-07-30T15:26:36;27.80;84.30
983;DHT22;480;48.124;11.578;2022-07-30T15:29:04;27.90;83.10
983;DHT22;480;48.124;11.578;2022-07-30T15:31:31;28.40;82.90
983;DHT22;480;48.124;11.578;2022-07-30T15:33:59;28.60;82.60
983;DHT22;480;48.124;11.578;2022-07-30T15:36:26;28.80;80.80
983;DHT22;480;48.124;11.578;2022-07-30T15:38:53;28.70;81.10
983;DHT22;480;48.124;11.578;2022-07-30T15:41:20;28.80;80.00
983;DHT22;480;48.124;11.578;2022-07-30T15:43:47;28.80;83.00
983;DHT22;480;48.124;11.578;2022-07-30T15:46:14;28.70;81.20
983;DHT22;480;48.124;11.578;2022-07-30T15:48:41;28.70;80.80
983;DHT22;480;48.124;11.578;2022-07-30T15:51:09;28.90;81.70
983;DHT22;480;48.124;11.578;2022-07-30T15:53:37;29.00;82.00
983;DHT22;480;48.124;11.578;2022-07-30T15:56:04;28.90;80.40
983;DHT22;480;48.124;11.578;2022-07-30T15:58:31;29.00;79.50
983;DHT22;480;48.124;11.578;2022-07-30T16:00:58;29.30;80.90
983;DHT22;480;48.124;11.578;2022-07-30T16:03:25;29.10;78.90
983;DHT22;480;48.124;11.578;2022-07-30T16:05:53;28.50;79.00
983;DHT22;480;48.124;11.578;2022-07-30T16:08:24;28.40;79.60
983;DHT22;480;48.124;11.578;2022-07-30T16:10:51;28.50;80.60
983;DHT22;480;48.124;11.578;2022-07-30T16:13:18;28.50;79.90
983;DHT22;480;48.124;11.578;2022-07-30T16:15:45;28.70;79.80
983;DHT22;480;48.124;11.578;2022-07-30T16:18:12;28.80;78.90
983;DHT22;480;48.124;11.578;2022-07-30T16:20:39;28.60;79.70
983;DHT22;480;48.124;11.578;2022-07-30T16:23:06;28.80;80.20
983;DHT22;480;48.124;11.578;2022-07-30T16:25:34;28.70;78.80
983;DHT22;480;48.124;11.578;2022-07-30T16:28:01;28.20;78.30
983;DHT22;480;48.124;11.578;2022-07-30T16:30:28;27.60;79.70